Time;durP1;ratioP1;P1;durP2;ratioP2;P2;SDS_P1;SDS_P2;PMS_P1;PMS_P2;Temp;Humidity;BMP_temperature;BMP_pressure;BME280_temperature;BME280_humidity;BME280_pressure;Samples;Min_cycle;Max_cycle;Signal;HPM_P1;HPM_P2
2022/08/14 00:00:19;;;;;;;11.80;8.70;;;;;;;22.04;68.22;98600.16;235569;1196;139611;-55
2022/08/14 00:05:41;;;;;;;10.60;8.50;;;;;;;22.04;68.15;98598.95;237404;1196;141542;-56
2022/08/14 00:10:46;;;;;;;13.40;8.70;;;;;;;22.02;68.20;98591.16;237414;1196;139854;-57
2022/08/14 00:15:57;;;;;;;14.70;9.20;;;;;;;21.98;68.06;98582.80;237348;1196;139794;-56
2022/08/14 00:21:01;;;;;;;10.20;8.40;;;;;;;21.93;68.05;98579.38;237502;1195;139466;-54
2022/08/14 00:26:05;;;;;;;13.30;8.50;;;;;;;21.91;68.00;98577.12;237748;1195;140722;-57
2022/08/14 00:31:23;;;;;;;11.70;9.00;;;;;;;21.95;68.27;98567.61;237325;1196;139922;-58
2022/08/14 00:36:45;;;;;;;10.90;8.90;;;;;;;21.95;68.27;98568.35;237403;1195;139049;-57
2022/08/14 00:41:51;;;;;;;12.30;8.10;;;;;;;21.95;68.31;98565.23;237620;1195;140665;-58
2022/08/14 00:46:54;;;;;;;11.50;7.80;;;;;;;21.99;68.32;98557.08;237118;1195;140008;-57
2022/08/14 00:52:01;;;;;;;11.80;8.50;;;;;;;21.99;68.18;98551.08;237334;1196;139533;-58
2022/08/14 00:57:04;;;;;;;13.00;9.00;;;;;;;21.99;68.23;98552.58;237418;1196;139719;-57
2022/08/14 01:02:08;;;;;;;10.80;8.00;;;;;;;21.93;68.10;98552.64;237502;1196;140049;-57
2022/08/14 01:07:19;;;;;;;10.70;8.40;;;;;;;21.92;68.24;98555.66;237057;1196;140700;-57
2022/08/14 01:12:24;;;;;;;15.00;9.10;;;;;;;21.93;68.25;98556.08;236530;1196;140088;-56
2022/08/14 01:22:54;;;;;;;11.70;8.60;;;;;;;21.80;68.14;98553.84;237478;1195;139506;-59
2022/08/14 01:27:57;;;;;;;10.90;9.00;;;;;;;21.78;68.40;98547.09;237420;1196;140044;-58
2022/08/14 01:33:01;;;;;;;14.70;9.80;;;;;;;21.81;68.66;98545.73;237272;1196;139888;-57
2022/08/14 01:38:04;;;;;;;12.80;9.70;;;;;;;21.83;68.48;98537.91;236769;1196;139128;-60
2022/08/14 01:43:13;;;;;;;12.30;9.50;;;;;;;21.81;68.48;98540.60;236766;1195;139384;-57
2022/08/14 01:48:16;;;;;;;16.90;9.90;;;;;;;21.80;68.50;98543.21;237441;1195;140117;-56
2022/08/14 01:53:22;;;;;;;12.70;9.90;;;;;;;21.75;68.44;98540.83;237475;1196;139647;-57
2022/08/14 01:58:31;;;;;;;12.80;10.80;;;;;;;21.70;68.48;98535.81;237420;1195;139466;-57
2022/08/14 02:03:39;;;;;;;14.30;10.00;;;;;;;21.67;68.60;98538.72;237567;1195;140054;-55
2022/08/14 02:08:44;;;;;;;18.20;10.60;;;;;;;21.65;68.59;98535.01;237544;1195;141194;-57
2022/08/14 02:14:03;;;;;;;13.00;11.20;;;;;;;21.68;68.76;98527.11;237638;1195;139628;-57
2022/08/14 02:19:13;;;;;;;12.70;11.30;;;;;;;21.66;68.71;98525.45;237410;1195;140026;-56
2022/08/14 02:24:22;;;;;;;15.10;10.50;;;;;;;21.64;68.79;98522.35;237578;1195;139627;-58
2022/08/14 02:29:43;;;;;;;13.10;10.50;;;;;;;21.69;68.87;98520.45;237086;1195;141179;-57
2022/08/14 02:35:12;;;;;;;12.60;10.50;;;;;;;21.69;68.83;98518.95;237445;1195;139725;-60
2022/08/14 02:40:17;;;;;;;14.70;10.60;;;;;;;21.67;68.75;98522.09;237413;1195;139768;-57
2022/08/14 02:45:20;;;;;;;14.60;9.90;;;;;;;21.62;68.70;98522.33;237606;1195;139956;-57
2022/08/14 02:50:24;;;;;;;12.60;10.70;;;;;;;21.65;68.97;98521.27;237678;1195;139738;-57
2022/08/14 02:55:29;;;;;;;17.40;11.50;;;;;;;21.66;68.89;98525.15;237520;1195;140222;-58
2022/08/14 03:00:34;;;;;;;14.00;10.50;;;;;;;21.66;68.97;98522.23;236840;1195;141199;-58
2022/08/14 03:05:43;;;;;;;15.90;11.10;;;;;;;21.67;68.94;98517.80;237487;1195;141064;-56
2022/08/14 03:10:46;;;;;;;13.00;11.60;;;;;;;21.71;68.98;98519.50;237579;1195;139471;-58
2022/08/14 03:15:52;;;;;;;17.80;11.70;;;;;;;21.69;68.83;98517.58;237520;1195;139593;-57
2022/08/14 03:21:04;;;;;;;14.20;10.40;;;;;;;21.63;68.67;98513.17;237408;1195;139560;-58
2022/08/14 03:26:09;;;;;;;13.40;10.30;;;;;;;21.61;68.74;98514.05;237599;1195;140316;-58
2022/08/14 03:31:21;;;;;;;16.00;12.20;;;;;;;21.65;69.07;98510.96;237188;1195;140144;-57
2022/08/14 03:36:30;;;;;;;16.20;12.40;;;;;;;21.67;69.00;98502.93;237467;1196;140132;-58
2022/08/14 03:41:55;;;;;;;13.40;11.40;;;;;;;21.64;68.77;98508.07;235938;1195;139921;-59
2022/08/14 03:47:03;;;;;;;17.60;12.50;;;;;;;21.64;68.88;98508.00;237473;1195;139716;-59
2022/08/14 03:52:06;;;;;;;18.20;12.30;;;;;;;21.62;68.90;98509.16;237258;1195;139880;-57
2022/08/14 03:57:31;;;;;;;18.50;11.80;;;;;;;21.59;68.86;98512.63;237456;1195;139567;-57
2022/08/14 04:02:35;;;;;;;16.60;12.30;;;;;;;21.60;69.01;98511.21;237440;1195;140403;-56
2022/08/14 04:07:48;;;;;;;19.50;14.20;;;;;;;21.62;69.17;98508.86;237507;1196;139800;-57
2022/08/14 04:13:17;;;;;;;18.60;13.30;;;;;;;21.61;69.11;98504.66;237468;1195;139824;-56
2022/08/14 04:18:20;;;;;;;17.70;13.00;;;;;;;21.55;68.81;98508.20;237594;1195;139442;-57
2022/08/14 04:23:24;;;;;;;19.20;12.50;;;;;;;21.53;68.90;98506.98;237416;1195;163403;-59
2022/08/14 04:28:39;;;;;;;19.00;13.00;;;;;;;21.55;68.97;98507.52;237457;1196;140291;-59
2022/08/14 04:34:03;;;;;;;14.90;11.60;;;;;;;21.57;69.07;98510.45;237410;1195;140127;-59
2022/08/14 04:44:28;;;;;;;16.30;11.80;;;;;;;21.63;69.07;98505.77;237311;1195;140970;-58
2022/08/14 04:49:40;;;;;;;13.50;11.00;;;;;;;21.70;69.20;98499.73;237575;1195;140261;-60
2022/08/14 04:54:58;;;;;;;14.90;10.70;;;;;;;21.69;68.94;98500.56;237403;1195;139968;-58
2022/08/14 05:00:05;;;;;;;15.40;10.20;;;;;;;21.67;68.90;98492.34;237445;1195;143678;-58
2022/08/14 05:05:19;;;;;;;14.00;10.70;;;;;;;21.67;68.91;98494.75;237492;1195;140023;-59
2022/08/14 05:10:25;;;;;;;12.50;9.60;;;;;;;21.68;68.96;98489.55;237414;1196;142307;-59
2022/08/14 05:15:36;;;;;;;11.40;7.70;;;;;;;21.70;68.98;98486.42;237368;1195;139150;-57
2022/08/14 05:20:44;;;;;;;11.60;7.30;;;;;;;21.81;69.25;98487.52;237667;1195;140000;-59
2022/08/14 05:26:17;;;;;;;8.50;7.20;;;;;;;21.90;69.12;98492.67;236497;1196;140318;-58
2022/08/14 05:31:20;;;;;;;10.00;6.00;;;;;;;21.89;68.84;98491.33;236835;1196;139541;-57
2022/08/14 05:36:24;;;;;;;6.80;5.50;;;;;;;21.89;68.78;98491.03;237536;1195;140796;-60
2022/08/14 05:41:31;;;;;;;8.50;5.50;;;;;;;21.92;68.98;98489.17;237676;1195;139969;-60
2022/08/14 05:46:54;;;;;;;8.50;5.70;;;;;;;21.98;68.99;98484.23;237366;1195;140143;-60
2022/08/14 05:51:58;;;;;;;5.60;4.60;;;;;;;22.04;68.99;98474.87;237249;1196;139059;-66
2022/08/14 05:57:03;;;;;;;6.50;5.60;;;;;;;22.15;68.97;98476.45;237475;1195;140197;-61
2022/08/14 06:02:08;;;;;;;16.20;12.10;;;;;;;22.26;68.98;98478.57;237500;1195;139500;-59
2022/08/14 06:07:13;;;;;;;5.20;4.40;;;;;;;22.41;69.02;98486.13;237211;1196;139621;-59
2022/08/14 06:12:16;;;;;;;7.50;6.80;;;;;;;22.52;68.78;98488.07;237010;1196;141275;-59
2022/08/14 06:17:50;;;;;;;4.20;3.40;;;;;;;22.60;68.66;98490.58;237674;1195;139426;-60
2022/08/14 06:23:01;;;;;;;17.80;15.90;;;;;;;22.68;68.40;98494.28;237093;1195;139822;-57
2022/08/14 06:28:04;;;;;;;4.30;2.40;;;;;;;22.72;68.10;98496.33;235544;1196;140541;-60
2022/08/14 06:33:28;;;;;;;188.40;143.90;;;;;;;22.73;68.00;98498.08;236910;1196;139876;-60
2022/08/14 06:38:53;;;;;;;17.60;15.80;;;;;;;22.72;68.05;98493.62;237513;1195;139788;-58
2022/08/14 06:43:55;;;;;;;5.90;4.00;;;;;;;22.72;68.01;98489.42;237513;1195;139108;-59
2022/08/14 06:48:58;;;;;;;21.70;17.50;;;;;;;22.78;68.01;98485.33;237221;1195;140667;-58
2022/08/14 06:54:02;;;;;;;3.10;2.60;;;;;;;22.87;68.08;98484.14;237058;1195;140315;-56
2022/08/14 06:59:04;;;;;;;185.80;146.10;;;;;;;23.00;68.11;98479.77;237439;1195;139139;-57
2022/08/14 07:09:30;;;;;;;4.50;3.40;;;;;;;23.15;67.76;98479.56;237225;1195;139427;-58
2022/08/14 07:14:52;;;;;;;3.70;1.80;;;;;;;23.21;67.43;98482.98;237597;1195;140783;-57
2022/08/14 07:20:04;;;;;;;38.70;33.40;;;;;;;23.22;67.35;98487.59;237758;1195;139303;-58
2022/08/14 07:25:09;;;;;;;3.80;3.40;;;;;;;23.21;67.16;98484.33;236879;1195;139866;-58
2022/08/14 07:30:12;;;;;;;4.60;3.80;;;;;;;23.18;67.02;98486.91;236389;1196;139422;-58
2022/08/14 07:35:37;;;;;;;3.80;1.90;;;;;;;23.19;67.08;98486.97;236014;1196;140586;-58
2022/08/14 07:41:01;;;;;;;3.10;2.80;;;;;;;23.21;67.05;98488.13;237137;1196;140921;-57
2022/08/14 07:46:05;;;;;;;3.20;2.90;;;;;;;23.20;67.00;98495.66;237176;1195;139230;-58
2022/08/14 07:51:08;;;;;;;316.50;282.80;;;;;;;23.20;67.08;98496.33;237491;1195;140196;-62
2022/08/14 07:56:13;;;;;;;21.70;19.20;;;;;;;23.20;67.13;98504.06;237680;1195;140288;-57
2022/08/14 08:01:36;;;;;;;93.20;83.20;;;;;;;23.24;67.13;98505.75;237331;1195;141227;-56
2022/08/14 08:06:51;;;;;;;7.50;6.50;;;;;;;23.30;67.26;98499.31;237339;1195;140160;-56
2022/08/14 08:11:55;;;;;;;7.70;5.80;;;;;;;23.38;67.18;98495.44;237310;1195;139794;-59
2022/08/14 08:17:00;;;;;;;9.70;7.60;;;;;;;23.41;67.15;98488.00;237381;1195;140083;-59
2022/08/14 08:22:03;;;;;;;9.30;6.40;;;;;;;23.49;67.13;98488.66;237296;1195;140949;-59
2022/08/14 08:27:18;;;;;;;7.90;7.10;;;;;;;23.66;67.41;98492.59;237253;1195;141237;-57
2022/08/14 08:32:25;;;;;;;14.80;10.90;;;;;;;23.82;67.33;98485.46;237364;1195;139685;-57
2022/08/14 08:37:34;;;;;;;10.90;9.80;;;;;;;23.92;67.10;98488.15;237339;1195;140392;-56
2022/08/14 08:42:45;;;;;;;104.80;86.70;;;;;;;23.96;66.82;98487.27;237132;1196;139492;-54
2022/08/14 08:47:54;;;;;;;26.30;21.30;;;;;;;24.05;66.72;98481.84;237123;1196;139931;-56
2022/08/14 08:53:00;;;;;;;21.30;17.40;;;;;;;24.15;66.29;98481.30;236594;1195;140107;-58
2022/08/14 08:58:09;;;;;;;10.40;8.20;;;;;;;24.21;66.22;98483.27;237275;1195;139806;-54
2022/08/14 09:03:26;;;;;;;9.50;8.20;;;;;;;24.21;65.97;98488.64;237135;1196;139969;-56
2022/08/14 09:08:31;;;;;;;12.30;10.60;;;;;;;24.19;65.73;98486.61;236062;1196;140663;-55
2022/08/14 09:13:35;;;;;;;24.80;22.40;;;;;;;24.16;65.53;98483.32;236842;1196;139510;-54
2022/08/14 09:18:40;;;;;;;12.80;11.00;;;;;;;24.16;65.47;98480.77;236330;1195;140058;-56
2022/08/14 09:23:44;;;;;;;102.50;78.20;;;;;;;24.21;65.35;98477.05;237350;1195;140046;-56
2022/08/14 09:29:09;;;;;;;34.50;29.60;;;;;;;24.29;65.63;98472.76;237076;1195;139836;-56
2022/08/14 09:34:30;;;;;;;13.70;11.40;;;;;;;24.34;65.24;98472.92;237372;1195;140032;-56
2022/08/14 09:40:14;;;;;;;13.10;11.50;;;;;;;24.37;65.32;98471.06;237384;1195;140318;-53
2022/08/14 09:45:45;;;;;;;70.80;63.10;;;;;;;24.49;65.17;98476.08;237494;1195;139550;-56
2022/08/14 09:50:56;;;;;;;94.20;74.60;;;;;;;24.63;64.87;98476.23;237230;1195;142395;-56
2022/08/14 09:56:00;;;;;;;10.20;8.40;;;;;;;24.74;64.58;98475.89;237286;1195;139788;-56
2022/08/14 10:01:22;;;;;;;7.30;6.10;;;;;;;24.83;64.39;98475.46;237232;1196;140556;-58
2022/08/14 10:06:27;;;;;;;8.80;6.40;;;;;;;24.94;64.35;98474.83;237416;1195;139383;-59
2022/08/14 10:11:37;;;;;;;17.90;9.00;;;;;;;24.98;63.89;98473.80;237387;1195;139505;-58
2022/08/14 10:16:53;;;;;;;5.60;4.70;;;;;;;24.96;63.70;98466.05;237420;1196;139040;-59
2022/08/14 10:22:06;;;;;;;4.10;3.50;;;;;;;25.22;64.12;98460.20;237137;1196;139153;-59
2022/08/14 10:27:28;;;;;;;6.10;4.10;;;;;;;25.37;63.78;98455.60;237219;1195;140022;-59
2022/08/14 10:32:45;;;;;;;4.50;3.70;;;;;;;25.53;63.38;98449.86;237655;1195;139793;-57
2022/08/14 10:37:59;;;;;;;4.20;3.80;;;;;;;25.62;63.16;98448.52;237523;1195;139282;-58
2022/08/14 10:43:16;;;;;;;5.90;4.30;;;;;;;25.66;62.74;98450.77;237205;1196;140334;-58
2022/08/14 10:48:19;;;;;;;6.50;4.50;;;;;;;25.64;62.80;98451.85;237408;1195;139790;-58
2022/08/14 10:53:38;;;;;;;4.30;3.20;;;;;;;25.73;63.05;98454.23;237599;1195;139586;-57
2022/08/14 10:58:41;;;;;;;3.50;3.20;;;;;;;25.79;62.67;98458.07;237366;1195;139330;-58
2022/08/14 11:03:47;;;;;;;3.50;3.10;;;;;;;25.92;62.83;98454.91;237427;1195;139581;-59
2022/08/14 11:09:11;;;;;;;3.70;3.40;;;;;;;25.89;62.42;98453.87;237395;1196;139055;-57
2022/08/14 11:14:18;;;;;;;4.00;3.50;;;;;;;25.85;62.35;98451.73;237645;1195;140017;-57
2022/08/14 11:19:25;;;;;;;3.70;3.40;;;;;;;25.80;62.35;98452.45;237807;1195;139670;-57
2022/08/14 11:24:31;;;;;;;4.40;3.50;;;;;;;25.71;62.36;98449.27;237410;1196;139370;-58
2022/08/14 11:29:59;;;;;;;5.30;3.20;;;;;;;25.63;62.30;98452.73;237224;1196;140725;-58
2022/08/14 11:35:25;;;;;;;4.10;3.30;;;;;;;25.59;62.19;98458.52;236590;1195;140202;-58
2022/08/14 11:40:46;;;;;;;3.70;3.40;;;;;;;25.57;62.25;98461.36;237752;1195;139483;-58
2022/08/14 11:45:50;;;;;;;3.30;2.90;;;;;;;25.54;62.32;98465.55;237291;1196;140282;-57
2022/08/14 11:50:54;;;;;;;4.60;2.90;;;;;;;25.53;62.23;98463.87;237143;1195;139291;-58
2022/08/14 11:56:04;;;;;;;3.30;2.50;;;;;;;25.62;62.42;98468.38;237914;1195;139157;-57
2022/08/14 12:01:08;;;;;;;2.70;2.50;;;;;;;25.79;62.40;98469.57;237703;1195;139375;-58
2022/08/14 12:06:15;;;;;;;5.10;2.60;;;;;;;26.05;62.53;98473.67;237451;1195;140020;-58
2022/08/14 12:11:39;;;;;;;3.00;2.70;;;;;;;26.53;62.60;98467.56;237498;1195;139510;-57
2022/08/14 12:16:57;;;;;;;4.00;2.70;;;;;;;27.18;62.47;98455.47;237566;1195;140516;-58
2022/08/14 12:22:01;;;;;;;;;;;;;;;27.44;61.19;98452.08;237563;1195;140718;-59
2022/08/14 12:27:04;;;;;;;3.00;2.70;;;;;;;27.60;60.99;98444.60;237488;1196;126192;-58
2022/08/14 12:32:08;;;;;;;4.70;3.10;;;;;;;28.06;60.78;98441.56;237138;1196;139335;-58
2022/08/14 12:37:15;;;;;;;3.50;3.20;;;;;;;28.49;60.04;98434.06;237752;1195;140099;-58
2022/08/14 12:42:19;;;;;;;5.40;3.60;;;;;;;28.81;59.18;98430.84;237686;1195;139225;-58
2022/08/14 12:47:41;;;;;;;5.60;4.30;;;;;;;28.89;58.37;98422.44;237275;1196;139686;-58
2022/08/14 12:52:44;;;;;;;;;;;;;;;28.80;57.69;98421.56;237555;1195;139764;-58
2022/08/14 12:58:08;;;;;;;6.30;5.50;;;;;;;28.34;57.23;98416.88;236848;1194;126945;-57
2022/08/14 13:03:32;;;;;;;6.80;5.40;;;;;;;27.97;57.42;98410.42;237504;1195;139209;-58
2022/08/14 13:08:35;;;;;;;6.80;5.90;;;;;;;27.85;57.59;98400.53;237477;1195;139273;-59
2022/08/14 13:13:49;;;;;;;6.70;5.80;;;;;;;27.97;58.02;98394.26;237625;1195;140186;-59
2022/08/14 13:19:00;;;;;;;26.60;24.00;;;;;;;28.37;57.92;98387.59;237570;1195;139129;-58
2022/08/14 13:24:04;;;;;;;11.40;7.90;;;;;;;28.73;57.50;98385.58;237481;1195;139410;-59
2022/08/14 13:29:10;;;;;;;35.00;31.20;;;;;;;28.84;56.82;98378.68;237512;1196;140215;-59
2022/08/14 13:34:14;;;;;;;25.30;12.70;;;;;;;28.82;56.39;98367.98;237270;1195;139779;-58
2022/08/14 13:39:20;;;;;;;23.20;17.60;;;;;;;28.75;56.13;98358.04;237180;1196;140125;-56
2022/08/14 13:44:25;;;;;;;14.70;10.40;;;;;;;28.80;56.14;98348.84;236764;1196;139707;-57
2022/08/14 13:49:28;;;;;;;7.90;5.90;;;;;;;28.85;56.10;98346.54;236606;1196;140460;-56
2022/08/14 13:54:33;;;;;;;;;;;;;;;28.83;55.66;98339.02;235794;1196;139364;-59
2022/08/14 13:59:42;;;;;;;12.30;10.10;;;;;;;28.88;55.63;98335.30;237102;1195;126357;-56
2022/08/14 14:04:46;;;;;;;56.70;49.40;;;;;;;29.02;55.64;98331.09;237416;1196;140176;-58
2022/08/14 14:09:54;;;;;;;16.90;14.00;;;;;;;29.15;55.56;98324.39;237379;1195;139969;-57
2022/08/14 14:14:59;;;;;;;10.20;9.10;;;;;;;29.06;54.80;98321.71;237354;1195;139992;-57
2022/08/14 14:20:12;;;;;;;8.90;8.00;;;;;;;28.78;54.65;98329.14;237487;1196;141485;-58
2022/08/14 14:25:41;;;;;;;9.30;7.00;;;;;;;28.70;54.92;98329.79;237380;1195;139157;-57
2022/08/14 14:30:53;;;;;;;8.00;7.00;;;;;;;28.62;54.65;98326.54;237240;1195;139676;-58
2022/08/14 14:36:01;;;;;;;8.00;7.10;;;;;;;28.58;54.51;98334.27;237337;1196;139956;-59
2022/08/14 14:41:07;;;;;;;73.50;65.60;;;;;;;28.39;54.35;98332.41;237304;1195;140284;-58
2022/08/14 14:46:13;;;;;;;21.10;18.90;;;;;;;28.19;54.24;98335.80;236637;1195;140267;-59
2022/08/14 14:51:18;;;;;;;154.80;127.30;;;;;;;27.98;54.56;98333.81;237419;1195;139938;-58
2022/08/14 14:56:24;;;;;;;9.40;8.50;;;;;;;27.91;54.65;98324.20;237578;1195;140075;-59
2022/08/14 15:01:49;;;;;;;9.80;7.80;;;;;;;27.88;54.62;98322.62;237412;1195;141672;-57
2022/08/14 15:06:51;;;;;;;8.20;7.40;;;;;;;27.83;54.81;98318.48;237402;1195;139516;-57
2022/08/14 15:11:56;;;;;;;8.50;7.60;;;;;;;27.73;54.67;98316.54;237596;1194;139783;-58
2022/08/14 15:17:00;;;;;;;;;;;;;;;27.61;54.69;98315.22;237381;1196;140492;-57
2022/08/14 15:22:05;;;;;;;8.90;7.20;;;;;;;27.50;54.85;98318.91;237603;1195;126054;-58
2022/08/14 15:27:09;;;;;;;8.90;7.80;;;;;;;27.41;54.86;98321.66;237488;1195;140358;-58
2022/08/14 15:32:12;;;;;;;8.70;7.70;;;;;;;27.35;55.03;98324.45;237574;1196;139616;-57
2022/08/14 15:37:20;;;;;;;8.90;7.20;;;;;;;27.28;55.03;98326.08;237451;1195;141589;-57
2022/08/14 15:42:24;;;;;;;7.90;7.10;;;;;;;27.25;55.05;98324.82;237152;1196;139289;-57
2022/08/14 15:47:30;;;;;;;8.00;7.20;;;;;;;27.23;54.85;98330.86;237396;1196;139549;-57
2022/08/14 15:52:35;;;;;;;8.10;7.20;;;;;;;27.18;54.84;98324.95;237450;1195;141807;-57
2022/08/14 15:57:40;;;;;;;8.60;7.80;;;;;;;27.14;54.74;98326.33;237276;1196;139094;-57
2022/08/14 16:03:03;;;;;;;9.20;7.70;;;;;;;27.07;54.64;98322.52;237162;1196;139458;-58
2022/08/14 16:08:11;;;;;;;9.00;7.90;;;;;;;27.02;54.71;98321.58;237620;1195;140275;-57
2022/08/14 16:13:37;;;;;;;10.10;7.60;;;;;;;26.99;54.59;98312.90;237574;1195;141824;-57
2022/08/14 16:18:45;;;;;;;8.60;7.70;;;;;;;26.96;54.60;98302.23;237070;1196;139026;-57
2022/08/14 16:23:49;;;;;;;9.20;8.10;;;;;;;26.95;54.69;98298.10;237487;1195;140345;-57
2022/08/14 16:29:01;;;;;;;10.00;8.20;;;;;;;26.91;54.77;98292.65;237328;1195;139790;-56
2022/08/14 16:34:04;;;;;;;10.50;9.00;;;;;;;26.84;54.89;98305.13;237384;1195;139643;-58
2022/08/14 16:39:27;;;;;;;11.50;9.20;;;;;;;26.74;54.90;98308.52;236870;1195;139240;-57
2022/08/14 16:44:37;;;;;;;11.90;10.00;;;;;;;26.66;54.99;98310.91;237146;1196;139965;-57
2022/08/14 16:49:44;;;;;;;10.90;9.80;;;;;;;26.59;55.05;98307.39;237505;1195;139586;-57
2022/08/14 16:55:09;;;;;;;11.10;9.70;;;;;;;26.51;55.22;98297.95;237308;1195;139894;-58
2022/08/14 17:00:32;;;;;;;10.20;9.10;;;;;;;26.44;55.38;98293.09;236958;1195;139456;-56
2022/08/14 17:05:46;;;;;;;11.50;9.60;;;;;;;26.36;55.76;98286.02;236064;1196;143672;-57
2022/08/14 17:10:49;;;;;;;10.30;9.30;;;;;;;26.28;55.74;98286.91;237492;1195;139163;-58
2022/08/14 17:16:05;;;;;;;302.40;239.70;;;;;;;26.20;55.91;98293.16;237534;1195;140239;-58
2022/08/14 17:21:16;;;;;;;110.10;91.80;;;;;;;26.14;56.03;98295.48;237275;1195;140011;-59
2022/08/14 17:26:37;;;;;;;95.10;85.30;;;;;;;26.07;56.08;98290.70;237190;1196;140693;-60
2022/08/14 17:31:59;;;;;;;35.20;31.40;;;;;;;26.02;56.21;98284.13;237347;1195;139161;-57
2022/08/14 17:37:04;;;;;;;23.80;21.30;;;;;;;25.93;56.30;98288.52;237513;1195;140598;-58
2022/08/14 17:42:15;;;;;;;14.60;12.70;;;;;;;25.84;56.37;98286.13;237338;1195;140132;-58
2022/08/14 17:47:34;;;;;;;13.30;11.90;;;;;;;25.77;56.68;98288.33;237358;1195;140252;-59
2022/08/14 17:52:41;;;;;;;13.80;11.70;;;;;;;25.72;56.91;98278.48;237022;1195;140071;-58
2022/08/14 17:57:53;;;;;;;12.20;11.00;;;;;;;25.66;57.01;98280.16;236961;1196;139789;-58
2022/08/14 18:02:57;;;;;;;155.30;138.20;;;;;;;25.59;56.99;98284.66;237425;1195;139545;-57
2022/08/14 18:08:05;;;;;;;20.80;16.30;;;;;;;25.55;57.35;98292.40;237339;1195;139933;-55
2022/08/14 18:13:30;;;;;;;14.90;12.10;;;;;;;25.47;57.41;98295.33;237487;1195;140071;-57
2022/08/14 18:18:53;;;;;;;13.30;11.90;;;;;;;25.35;57.48;98300.95;237430;1195;140904;-57
2022/08/14 18:23:56;;;;;;;14.50;12.10;;;;;;;25.25;57.54;98313.05;237389;1195;139671;-56
2022/08/14 18:29:01;;;;;;;13.00;11.60;;;;;;;25.14;57.87;98324.25;237370;1195;139700;-57
2022/08/14 18:34:16;;;;;;;397.20;355.60;;;;;;;25.09;58.14;98327.30;237413;1195;141695;-57
2022/08/14 18:39:35;;;;;;;18.30;16.40;;;;;;;25.11;58.55;98334.63;237231;1195;140435;-56
2022/08/14 18:45:04;;;;;;;20.10;16.40;;;;;;;25.14;58.69;98332.02;237133;1195;141178;-56
2022/08/14 18:50:27;;;;;;;14.20;12.60;;;;;;;25.09;58.79;98330.33;236794;1195;140347;-55
2022/08/14 18:55:37;;;;;;;16.30;13.00;;;;;;;25.04;58.67;98333.87;236605;1195;139505;-57
2022/08/14 19:00:57;;;;;;;199.70;175.40;;;;;;;24.96;58.85;98325.29;237147;1195;140921;-59
2022/08/14 19:06:03;;;;;;;18.90;15.00;;;;;;;24.87;58.89;98329.34;236863;1195;140342;-58
2022/08/14 19:11:36;;;;;;;14.50;11.00;;;;;;;24.77;59.10;98328.29;237426;1195;139622;-59
2022/08/14 19:16:43;;;;;;;16.00;11.80;;;;;;;24.64;59.27;98324.60;236814;1195;140103;-59
2022/08/14 19:21:55;;;;;;;14.70;12.20;;;;;;;24.53;59.32;98328.27;237511;1195;139585;-64
2022/08/14 19:27:19;;;;;;;13.90;12.10;;;;;;;24.43;59.56;98330.84;237374;1195;139645;-59
2022/08/14 19:32:32;;;;;;;15.20;12.40;;;;;;;24.32;59.69;98331.98;237611;1195;139553;-60
2022/08/14 19:37:42;;;;;;;15.20;12.10;;;;;;;24.23;59.95;98325.62;237742;1195;139856;-58
2022/08/14 19:42:47;;;;;;;14.80;12.50;;;;;;;24.18;60.13;98328.30;237461;1195;141259;-59
2022/08/14 19:47:50;;;;;;;18.00;13.20;;;;;;;24.13;60.34;98330.73;237422;1196;139274;-59
2022/08/14 19:53:08;;;;;;;17.10;14.60;;;;;;;24.10;60.53;98329.34;237515;1195;139744;-57
2022/08/14 19:58:13;;;;;;;225.40;188.20;;;;;;;24.08;60.72;98318.48;237556;1195;140063;-56
2022/08/14 20:03:16;;;;;;;19.80;16.70;;;;;;;24.11;61.04;98312.16;237513;1195;140207;-56
2022/08/14 20:08:25;;;;;;;17.80;13.90;;;;;;;24.12;60.84;98311.63;237071;1196;140790;-58
2022/08/14 20:14:03;;;;;;;19.60;14.80;;;;;;;24.08;60.72;98306.16;237596;1194;141000;-58
2022/08/14 20:19:21;;;;;;;16.10;14.20;;;;;;;24.00;60.76;98307.94;237427;1195;139835;-59
2022/08/14 20:24:33;;;;;;;18.40;14.10;;;;;;;23.92;60.80;98303.78;236835;1196;140436;-58
2022/08/14 20:29:43;;;;;;;24.00;14.60;;;;;;;23.80;60.81;98292.59;237027;1196;139609;-56
2022/08/14 20:34:47;;;;;;;16.40;13.60;;;;;;;23.71;61.12;98295.57;237417;1195;139870;-57
2022/08/14 20:39:53;;;;;;;15.90;11.70;;;;;;;23.65;61.19;98296.83;237445;1196;139514;-57
2022/08/14 20:45:22;;;;;;;16.10;11.50;;;;;;;23.60;61.21;98301.52;237304;1196;140546;-58
2022/08/14 20:50:28;;;;;;;16.50;11.20;;;;;;;23.57;61.24;98301.69;237735;1195;139714;-58
2022/08/14 20:55:37;;;;;;;13.90;10.80;;;;;;;23.53;61.23;98296.27;236718;1195;139467;-56
2022/08/14 21:00:56;;;;;;;;;;;;;;;23.47;61.32;98291.67;237425;1196;139837;-57
2022/08/14 21:06:07;;;;;;;13.70;9.60;;;;;;;23.45;61.39;98297.63;237607;1195;127471;-58
2022/08/14 21:11:23;;;;;;;13.20;10.20;;;;;;;23.47;61.44;98297.55;237672;1195;139447;-57
2022/08/14 21:16:28;;;;;;;10.60;8.90;;;;;;;23.46;61.22;98290.11;237466;1195;139757;-58
2022/08/14 21:21:42;;;;;;;11.10;8.90;;;;;;;23.42;61.21;98289.73;237335;1195;140396;-58
2022/08/14 21:26:57;;;;;;;11.20;9.50;;;;;;;23.36;61.26;98293.20;237197;1195;139420;-58
2022/08/14 21:32:11;;;;;;;9.80;8.80;;;;;;;23.30;61.29;98288.63;237510;1195;140141;-57
2022/08/14 21:37:22;;;;;;;10.90;9.30;;;;;;;23.24;61.28;98281.44;237762;1195;141950;-59
2022/08/14 21:42:26;;;;;;;10.90;9.30;;;;;;;23.16;61.32;98281.23;237705;1195;141850;-58
2022/08/14 21:47:31;;;;;;;10.30;8.10;;;;;;;23.09;61.44;98280.13;237131;1196;139109;-56
2022/08/14 21:52:37;;;;;;;12.20;8.00;;;;;;;23.09;61.51;98283.73;237480;1195;140605;-58
2022/08/14 21:58:00;;;;;;;11.30;8.30;;;;;;;23.10;61.58;98279.25;237124;1195;139914;-58
2022/08/14 22:03:25;;;;;;;10.10;8.70;;;;;;;23.09;61.58;98273.31;237204;1196;140024;-59
2022/08/14 22:08:37;;;;;;;10.60;8.30;;;;;;;23.07;61.65;98279.56;236750;1196;139276;-58
2022/08/14 22:13:47;;;;;;;13.10;8.50;;;;;;;23.02;61.58;98274.50;237296;1196;140901;-59
2022/08/14 22:18:53;;;;;;;10.30;8.50;;;;;;;22.94;61.58;98273.65;237274;1196;139630;-57
2022/08/14 22:23:59;;;;;;;11.10;8.20;;;;;;;22.86;61.68;98279.98;237764;1194;139635;-55
2022/08/14 22:29:14;;;;;;;10.20;8.20;;;;;;;22.83;61.86;98285.83;237248;1196;139909;-56
2022/08/14 22:34:19;;;;;;;10.40;8.50;;;;;;;22.81;61.84;98289.48;237222;1196;140070;-57
2022/08/14 22:39:29;;;;;;;9.70;8.40;;;;;;;22.81;61.94;98290.27;237568;1195;139451;-56
2022/08/14 22:44:52;;;;;;;12.40;8.20;;;;;;;22.78;62.04;98297.17;237031;1195;139793;-59
2022/08/14 22:49:58;;;;;;;11.90;8.40;;;;;;;22.76;62.22;98293.47;236861;1196;139501;-58
2022/08/14 22:55:21;;;;;;;10.40;8.60;;;;;;;22.74;62.15;98290.45;235940;1195;139628;-57
2022/08/14 23:00:25;;;;;;;10.20;8.00;;;;;;;22.67;62.17;98287.83;237144;1196;139590;-54
2022/08/14 23:05:33;;;;;;;13.70;8.50;;;;;;;22.62;62.24;98279.96;237304;1196;140430;-56
2022/08/14 23:10:53;;;;;;;12.50;8.80;;;;;;;22.59;62.38;98279.47;237456;1196;140392;-56
2022/08/14 23:15:56;;;;;;;13.30;9.60;;;;;;;22.56;62.45;98283.52;237311;1196;140094;-55
2022/08/14 23:21:00;;;;;;;11.80;9.60;;;;;;;22.50;62.45;98278.19;237192;1196;141116;-57
2022/08/14 23:26:06;;;;;;;13.10;9.50;;;;;;;22.41;62.33;98271.15;237195;1196;138895;-57
2022/08/14 23:31:29;;;;;;;11.90;8.20;;;;;;;22.32;62.58;98271.17;237453;1196;139891;-57
2022/08/14 23:36:39;;;;;;;10.40;8.80;;;;;;;22.30;62.75;98265.76;237215;1196;140817;-58
2022/08/14 23:42:00;;;;;;;12.60;8.60;;;;;;;22.30;62.94;98258.29;237386;1196;140204;-58
2022/08/14 23:47:07;;;;;;;9.40;8.40;;;;;;;22.29;62.96;98248.11;237355;1195;139907;-58